CYDL

Details ICAO CYDL (YDL)
Name DEASE LAKE
Region Canada
Timezone America/Vancouver (UTC-8.0)
Plans Departing 4
Arriving 3
Stats Elevation 2,600 ft / 792 m (AMSL)
Location 58.422221° -130.032216°
Runways 1
Magnetic Variation 19.350° E
Sunrise 2017-12-17 17:26:57 UTC / 2017-12-17 09:26:57 Local
Sunset 2017-12-17 23:48:38 UTC / 2017-12-17 15:48:38 Local
Advertisement - Login to hide

Runways

ID Width Length Bearing (true) Bearing (mag) Surface Threshold Offset Overrun Length
02 90 ft / 27 m 6,025 ft / 1,837 m 47.71° 28.36° Asphalt 0 ft / 0 m 0 ft / 0 m
20 90 ft / 27 m 6,025 ft / 1,837 m 227.73° 208.38° Asphalt 400 ft / 122 m 0 ft / 0 m

Map

Weather


0- 5 10 15 20 25 30 35+ Temperature / ° C

Clouds and Precipitation
Forecast for 2017-12-17 12:00 UTC. Updated 40 minutes ago

Ground ~20,000 ft ~40,000 ft Winds

METAR

CYDL 171000Z AUTO 24008G15KT 200V300 9SM -SN FEW012 SCT022 BKN046 OVC160 M02/M03 A2948 RMK SLP012

TAF

TAF AMD CYDL 170207Z 1702/1703 VRB03KT P6SM -SN SCT004 OVC030 TEMPO 1702/1703 11/2SM -SN BKN004 OVC020 RMK FCST BASED ON AUTO OBS. NXT FCST WILL BE ISSUED AT 171645Z

Frequencies

Unicom 123.20 MHz CTAF
Warning: Do not use this data for real-world aviation or navigation. No guarantee of current accuracy is given.